sensor_id;sensor_type;location;lat;lon;timestamp;P1;durP1;ratioP1;P2;durP2;ratioP2
32200;SDS011;18701;45.588;5.288;2023-10-13T00:00:09;13.18;;;5.60;;
32200;SDS011;18701;45.588;5.288;2023-10-13T00:02:50;7.22;;;5.65;;
32200;SDS011;18701;45.588;5.288;2023-10-13T00:05:18;8.60;;;5.88;;
32200;SDS011;18701;45.588;5.288;2023-10-13T00:07:44;8.65;;;5.50;;
32200;SDS011;18701;45.588;5.288;2023-10-13T00:10:10;11.40;;;6.32;;
32200;SDS011;18701;45.588;5.288;2023-10-13T00:12:36;11.18;;;6.03;;
32200;SDS011;18701;45.588;5.288;2023-10-13T00:15:03;11.13;;;6.57;;
32200;SDS011;18701;45.588;5.288;2023-10-13T00:17:32;9.57;;;6.35;;
32200;SDS011;18701;45.588;5.288;2023-10-13T00:19:57;15.13;;;6.75;;
32200;SDS011;18701;45.588;5.288;2023-10-13T00:22:25;9.77;;;5.55;;
32200;SDS011;18701;45.588;5.288;2023-10-13T00:24:56;10.60;;;5.75;;
32200;SDS011;18701;45.588;5.288;2023-10-13T00:27:24;8.23;;;5.22;;
32200;SDS011;18701;45.588;5.288;2023-10-13T00:29:52;14.27;;;6.43;;
32200;SDS011;18701;45.588;5.288;2023-10-13T00:32:41;7.40;;;5.65;;
32200;SDS011;18701;45.588;5.288;2023-10-13T00:35:16;10.95;;;6.25;;
32200;SDS011;18701;45.588;5.288;2023-10-13T00:37:55;9.50;;;5.93;;
32200;SDS011;18701;45.588;5.288;2023-10-13T00:40:23;13.15;;;6.72;;
32200;SDS011;18701;45.588;5.288;2023-10-13T00:42:56;13.13;;;6.22;;
32200;SDS011;18701;45.588;5.288;2023-10-13T00:45:50;11.10;;;6.47;;
32200;SDS011;18701;45.588;5.288;2023-10-13T00:48:24;7.47;;;5.93;;
32200;SDS011;18701;45.588;5.288;2023-10-13T00:50:57;9.80;;;6.78;;
32200;SDS011;18701;45.588;5.288;2023-10-13T00:53:27;10.48;;;5.93;;
32200;SDS011;18701;45.588;5.288;2023-10-13T00:55:54;10.85;;;6.60;;
32200;SDS011;18701;45.588;5.288;2023-10-13T00:58:30;10.75;;;6.13;;
32200;SDS011;18701;45.588;5.288;2023-10-13T01:00:58;10.10;;;6.05;;
32200;SDS011;18701;45.588;5.288;2023-10-13T01:03:44;9.13;;;5.75;;
32200;SDS011;18701;45.588;5.288;2023-10-13T01:06:17;8.68;;;6.68;;
32200;SDS011;18701;45.588;5.288;2023-10-13T01:08:47;13.35;;;6.00;;
32200;SDS011;18701;45.588;5.288;2023-10-13T01:11:16;9.02;;;5.68;;
32200;SDS011;18701;45.588;5.288;2023-10-13T01:13:43;10.40;;;6.28;;
32200;SDS011;18701;45.588;5.288;2023-10-13T01:16:09;15.27;;;6.60;;
32200;SDS011;18701;45.588;5.288;2023-10-13T01:18:35;9.98;;;6.30;;
32200;SDS011;18701;45.588;5.288;2023-10-13T01:21:13;14.45;;;6.65;;
32200;SDS011;18701;45.588;5.288;2023-10-13T01:23:45;9.70;;;6.40;;
32200;SDS011;18701;45.588;5.288;2023-10-13T01:26:12;10.23;;;6.30;;
32200;SDS011;18701;45.588;5.288;2023-10-13T01:28:41;9.85;;;6.15;;
32200;SDS011;18701;45.588;5.288;2023-10-13T01:31:12;12.45;;;6.10;;
32200;SDS011;18701;45.588;5.288;2023-10-13T01:33:58;10.55;;;5.68;;
32200;SDS011;18701;45.588;5.288;2023-10-13T01:36:26;11.73;;;5.32;;
32200;SDS011;18701;45.588;5.288;2023-10-13T01:38:53;11.15;;;5.70;;
32200;SDS011;18701;45.588;5.288;2023-10-13T01:41:19;9.80;;;6.50;;
32200;SDS011;18701;45.588;5.288;2023-10-13T01:43:46;8.52;;;6.05;;
32200;SDS011;18701;45.588;5.288;2023-10-13T01:46:11;10.95;;;6.03;;
32200;SDS011;18701;45.588;5.288;2023-10-13T01:48:41;12.50;;;5.97;;
32200;SDS011;18701;45.588;5.288;2023-10-13T01:51:08;10.75;;;5.82;;
32200;SDS011;18701;45.588;5.288;2023-10-13T01:53:35;10.85;;;6.00;;
32200;SDS011;18701;45.588;5.288;2023-10-13T01:56:02;12.85;;;6.68;;
32200;SDS011;18701;45.588;5.288;2023-10-13T01:58:31;7.40;;;5.25;;
32200;SDS011;18701;45.588;5.288;2023-10-13T02:00:56;15.27;;;5.80;;
32200;SDS011;18701;45.588;5.288;2023-10-13T02:03:24;7.68;;;5.95;;
32200;SDS011;18701;45.588;5.288;2023-10-13T02:05:54;12.38;;;6.00;;
32200;SDS011;18701;45.588;5.288;2023-10-13T02:08:23;10.23;;;5.88;;
32200;SDS011;18701;45.588;5.288;2023-10-13T02:10:53;12.60;;;5.47;;
32200;SDS011;18701;45.588;5.288;2023-10-13T02:13:20;7.07;;;5.82;;
32200;SDS011;18701;45.588;5.288;2023-10-13T02:15:48;13.40;;;6.43;;
32200;SDS011;18701;45.588;5.288;2023-10-13T02:18:17;10.20;;;6.13;;
32200;SDS011;18701;45.588;5.288;2023-10-13T02:20:53;8.73;;;6.05;;
32200;SDS011;18701;45.588;5.288;2023-10-13T02:23:23;10.65;;;6.00;;
32200;SDS011;18701;45.588;5.288;2023-10-13T02:25:55;15.82;;;6.28;;
32200;SDS011;18701;45.588;5.288;2023-10-13T02:28:50;8.82;;;6.63;;
32200;SDS011;18701;45.588;5.288;2023-10-13T02:31:17;11.32;;;6.15;;
32200;SDS011;18701;45.588;5.288;2023-10-13T02:33:44;11.65;;;6.57;;
32200;SDS011;18701;45.588;5.288;2023-10-13T02:36:10;7.85;;;6.00;;
32200;SDS011;18701;45.588;5.288;2023-10-13T02:38:47;11.90;;;6.05;;
32200;SDS011;18701;45.588;5.288;2023-10-13T02:41:13;7.70;;;6.18;;
32200;SDS011;18701;45.588;5.288;2023-10-13T02:43:50;9.45;;;6.55;;
32200;SDS011;18701;45.588;5.288;2023-10-13T02:46:17;10.95;;;6.28;;
32200;SDS011;18701;45.588;5.288;2023-10-13T02:48:46;12.35;;;6.30;;
32200;SDS011;18701;45.588;5.288;2023-10-13T02:51:18;15.80;;;7.00;;
32200;SDS011;18701;45.588;5.288;2023-10-13T02:53:47;9.45;;;6.93;;
32200;SDS011;18701;45.588;5.288;2023-10-13T02:56:17;10.60;;;6.15;;
32200;SDS011;18701;45.588;5.288;2023-10-13T02:58:47;9.30;;;6.30;;
32200;SDS011;18701;45.588;5.288;2023-10-13T03:01:18;9.70;;;6.68;;
32200;SDS011;18701;45.588;5.288;2023-10-13T03:03:52;13.95;;;7.13;;
32200;SDS011;18701;45.588;5.288;2023-10-13T03:06:23;9.40;;;7.30;;
32200;SDS011;18701;45.588;5.288;2023-10-13T03:08:57;9.15;;;6.93;;
32200;SDS011;18701;45.588;5.288;2023-10-13T03:11:40;13.93;;;7.28;;
32200;SDS011;18701;45.588;5.288;2023-10-13T03:14:08;8.52;;;6.13;;
32200;SDS011;18701;45.588;5.288;2023-10-13T03:16:45;10.80;;;7.20;;
32200;SDS011;18701;45.588;5.288;2023-10-13T03:19:10;11.77;;;6.60;;
32200;SDS011;18701;45.588;5.288;2023-10-13T03:21:36;12.25;;;7.63;;
32200;SDS011;18701;45.588;5.288;2023-10-13T03:24:01;9.25;;;7.28;;
32200;SDS011;18701;45.588;5.288;2023-10-13T03:26:32;12.18;;;7.38;;
32200;SDS011;18701;45.588;5.288;2023-10-13T03:29:03;13.73;;;6.85;;
32200;SDS011;18701;45.588;5.288;2023-10-13T03:31:32;14.50;;;8.40;;
32200;SDS011;18701;45.588;5.288;2023-10-13T03:34:02;11.50;;;7.93;;
32200;SDS011;18701;45.588;5.288;2023-10-13T03:36:29;14.57;;;8.10;;
32200;SDS011;18701;45.588;5.288;2023-10-13T03:39:21;11.70;;;7.60;;
32200;SDS011;18701;45.588;5.288;2023-10-13T03:41:53;12.63;;;7.63;;
32200;SDS011;18701;45.588;5.288;2023-10-13T03:44:19;8.60;;;7.38;;
32200;SDS011;18701;45.588;5.288;2023-10-13T03:46:45;15.52;;;7.55;;
32200;SDS011;18701;45.588;5.288;2023-10-13T03:49:15;11.27;;;7.78;;
32200;SDS011;18701;45.588;5.288;2023-10-13T03:51:46;15.18;;;7.22;;
32200;SDS011;18701;45.588;5.288;2023-10-13T03:54:13;14.57;;;7.57;;
32200;SDS011;18701;45.588;5.288;2023-10-13T03:56:41;12.82;;;7.53;;
32200;SDS011;18701;45.588;5.288;2023-10-13T03:59:09;10.27;;;7.50;;
32200;SDS011;18701;45.588;5.288;2023-10-13T04:01:43;13.38;;;7.07;;
32200;SDS011;18701;45.588;5.288;2023-10-13T04:04:10;9.13;;;7.10;;
32200;SDS011;18701;45.588;5.288;2023-10-13T04:06:37;11.88;;;7.68;;
32200;SDS011;18701;45.588;5.288;2023-10-13T04:09:16;10.98;;;7.43;;
32200;SDS011;18701;45.588;5.288;2023-10-13T04:11:54;13.23;;;7.93;;
32200;SDS011;18701;45.588;5.288;2023-10-13T04:14:26;13.90;;;7.85;;
32200;SDS011;18701;45.588;5.288;2023-10-13T04:17:10;14.57;;;7.68;;
32200;SDS011;18701;45.588;5.288;2023-10-13T04:19:42;10.90;;;7.70;;
32200;SDS011;18701;45.588;5.288;2023-10-13T04:22:27;11.43;;;7.97;;
32200;SDS011;18701;45.588;5.288;2023-10-13T04:25:23;15.35;;;8.50;;
32200;SDS011;18701;45.588;5.288;2023-10-13T04:28:08;10.82;;;8.63;;
32200;SDS011;18701;45.588;5.288;2023-10-13T04:30:42;17.52;;;9.07;;
32200;SDS011;18701;45.588;5.288;2023-10-13T04:33:30;11.43;;;8.05;;
32200;SDS011;18701;45.588;5.288;2023-10-13T04:38:47;12.70;;;8.73;;
32200;SDS011;18701;45.588;5.288;2023-10-13T04:41:33;17.75;;;8.20;;
32200;SDS011;18701;45.588;5.288;2023-10-13T04:44:05;11.40;;;8.10;;
32200;SDS011;18701;45.588;5.288;2023-10-13T04:46:51;13.05;;;8.13;;
32200;SDS011;18701;45.588;5.288;2023-10-13T04:49:20;16.70;;;9.27;;
32200;SDS011;18701;45.588;5.288;2023-10-13T04:52:05;14.40;;;8.73;;
32200;SDS011;18701;45.588;5.288;2023-10-13T04:54:34;13.30;;;8.00;;
32200;SDS011;18701;45.588;5.288;2023-10-13T04:57:18;13.10;;;8.20;;
32200;SDS011;18701;45.588;5.288;2023-10-13T04:59:50;10.48;;;8.23;;
32200;SDS011;18701;45.588;5.288;2023-10-13T05:02:28;11.95;;;8.25;;
32200;SDS011;18701;45.588;5.288;2023-10-13T05:05:04;10.68;;;7.80;;
32200;SDS011;18701;45.588;5.288;2023-10-13T05:07:47;11.02;;;8.10;;
32200;SDS011;18701;45.588;5.288;2023-10-13T05:10:32;14.63;;;7.97;;
32200;SDS011;18701;45.588;5.288;2023-10-13T05:13:17;10.93;;;8.45;;
32200;SDS011;18701;45.588;5.288;2023-10-13T05:16:01;10.63;;;7.88;;
32200;SDS011;18701;45.588;5.288;2023-10-13T05:18:46;10.70;;;7.68;;
32200;SDS011;18701;45.588;5.288;2023-10-13T05:21:30;12.73;;;8.95;;
32200;SDS011;18701;45.588;5.288;2023-10-13T05:24:14;13.75;;;9.48;;
32200;SDS011;18701;45.588;5.288;2023-10-13T05:26:58;12.68;;;8.82;;
32200;SDS011;18701;45.588;5.288;2023-10-13T05:29:43;15.23;;;8.38;;
32200;SDS011;18701;45.588;5.288;2023-10-13T05:32:29;14.10;;;8.75;;
32200;SDS011;18701;45.588;5.288;2023-10-13T05:35:13;18.17;;;8.95;;
32200;SDS011;18701;45.588;5.288;2023-10-13T05:37:58;12.68;;;8.55;;
32200;SDS011;18701;45.588;5.288;2023-10-13T05:40:58;12.38;;;9.25;;
32200;SDS011;18701;45.588;5.288;2023-10-13T05:43:44;14.43;;;8.90;;
32200;SDS011;18701;45.588;5.288;2023-10-13T05:46:28;13.35;;;8.32;;
32200;SDS011;18701;45.588;5.288;2023-10-13T05:49:14;11.63;;;8.57;;
32200;SDS011;18701;45.588;5.288;2023-10-13T05:51:40;11.73;;;8.27;;
32200;SDS011;18701;45.588;5.288;2023-10-13T05:54:11;15.32;;;8.55;;
32200;SDS011;18701;45.588;5.288;2023-10-13T05:56:38;12.57;;;8.68;;
32200;SDS011;18701;45.588;5.288;2023-10-13T05:59:29;10.35;;;8.85;;
32200;SDS011;18701;45.588;5.288;2023-10-13T06:02:16;13.55;;;9.20;;
32200;SDS011;18701;45.588;5.288;2023-10-13T06:05:04;11.23;;;9.05;;
32200;SDS011;18701;45.588;5.288;2023-10-13T06:07:50;15.60;;;9.38;;
32200;SDS011;18701;45.588;5.288;2023-10-13T06:10:35;19.30;;;8.38;;
32200;SDS011;18701;45.588;5.288;2023-10-13T06:13:20;15.57;;;9.23;;
32200;SDS011;18701;45.588;5.288;2023-10-13T06:16:07;13.13;;;8.90;;
32200;SDS011;18701;45.588;5.288;2023-10-13T06:18:53;17.25;;;10.23;;
32200;SDS011;18701;45.588;5.288;2023-10-13T06:24:21;12.40;;;8.75;;
32200;SDS011;18701;45.588;5.288;2023-10-13T06:27:05;16.80;;;9.23;;
32200;SDS011;18701;45.588;5.288;2023-10-13T06:29:49;11.40;;;8.45;;
32200;SDS011;18701;45.588;5.288;2023-10-13T06:32:15;14.85;;;10.15;;
32200;SDS011;18701;45.588;5.288;2023-10-13T06:34:44;12.68;;;9.52;;
32200;SDS011;18701;45.588;5.288;2023-10-13T06:37:19;14.10;;;8.88;;
32200;SDS011;18701;45.588;5.288;2023-10-13T06:40:10;14.50;;;10.40;;
32200;SDS011;18701;45.588;5.288;2023-10-13T06:42:51;19.30;;;9.35;;
32200;SDS011;18701;45.588;5.288;2023-10-13T06:45:18;18.75;;;9.88;;
32200;SDS011;18701;45.588;5.288;2023-10-13T06:47:46;19.10;;;9.93;;
32200;SDS011;18701;45.588;5.288;2023-10-13T06:50:12;16.38;;;9.80;;
32200;SDS011;18701;45.588;5.288;2023-10-13T06:52:45;15.80;;;9.20;;
32200;SDS011;18701;45.588;5.288;2023-10-13T06:55:14;11.98;;;9.88;;
32200;SDS011;18701;45.588;5.288;2023-10-13T07:00:15;11.73;;;9.15;;
32200;SDS011;18701;45.588;5.288;2023-10-13T07:02:55;14.68;;;9.45;;
32200;SDS011;18701;45.588;5.288;2023-10-13T07:05:40;14.82;;;9.40;;
32200;SDS011;18701;45.588;5.288;2023-10-13T07:08:08;14.65;;;9.02;;
32200;SDS011;18701;45.588;5.288;2023-10-13T07:10:35;13.65;;;9.05;;
32200;SDS011;18701;45.588;5.288;2023-10-13T07:13:13;13.30;;;8.82;;
32200;SDS011;18701;45.588;5.288;2023-10-13T07:15:39;14.63;;;9.02;;
32200;SDS011;18701;45.588;5.288;2023-10-13T07:18:10;16.30;;;9.95;;
32200;SDS011;18701;45.588;5.288;2023-10-13T07:20:41;15.68;;;9.43;;
32200;SDS011;18701;45.588;5.288;2023-10-13T07:23:11;14.40;;;8.43;;
32200;SDS011;18701;45.588;5.288;2023-10-13T07:25:42;13.25;;;9.73;;
32200;SDS011;18701;45.588;5.288;2023-10-13T07:30:42;16.23;;;9.60;;
32200;SDS011;18701;45.588;5.288;2023-10-13T07:33:15;18.45;;;8.95;;
32200;SDS011;18701;45.588;5.288;2023-10-13T07:35:45;12.20;;;9.25;;
32200;SDS011;18701;45.588;5.288;2023-10-13T07:38:15;13.20;;;9.68;;
32200;SDS011;18701;45.588;5.288;2023-10-13T07:40:41;14.30;;;9.82;;
32200;SDS011;18701;45.588;5.288;2023-10-13T07:43:15;18.63;;;9.38;;
32200;SDS011;18701;45.588;5.288;2023-10-13T07:45:46;14.35;;;9.13;;
32200;SDS011;18701;45.588;5.288;2023-10-13T07:48:15;12.35;;;9.73;;
32200;SDS011;18701;45.588;5.288;2023-10-13T07:50:45;21.08;;;9.68;;
32200;SDS011;18701;45.588;5.288;2023-10-13T07:53:26;21.52;;;10.50;;
32200;SDS011;18701;45.588;5.288;2023-10-13T07:55:53;15.27;;;10.25;;
32200;SDS011;18701;45.588;5.288;2023-10-13T07:58:20;17.50;;;10.20;;
32200;SDS011;18701;45.588;5.288;2023-10-13T08:00:50;16.83;;;9.93;;
32200;SDS011;18701;45.588;5.288;2023-10-13T08:03:19;12.65;;;9.48;;
32200;SDS011;18701;45.588;5.288;2023-10-13T08:06:02;14.18;;;9.30;;
32200;SDS011;18701;45.588;5.288;2023-10-13T08:08:31;15.20;;;9.10;;
32200;SDS011;18701;45.588;5.288;2023-10-13T08:11:07;14.93;;;9.63;;
32200;SDS011;18701;45.588;5.288;2023-10-13T08:16:21;15.18;;;9.18;;
32200;SDS011;18701;45.588;5.288;2023-10-13T08:18:51;14.90;;;9.00;;
32200;SDS011;18701;45.588;5.288;2023-10-13T08:21:17;14.50;;;9.23;;
32200;SDS011;18701;45.588;5.288;2023-10-13T08:23:50;13.93;;;9.05;;
32200;SDS011;18701;45.588;5.288;2023-10-13T08:26:19;13.70;;;8.75;;
32200;SDS011;18701;45.588;5.288;2023-10-13T08:29:04;14.88;;;8.55;;
32200;SDS011;18701;45.588;5.288;2023-10-13T08:31:55;13.27;;;9.00;;
32200;SDS011;18701;45.588;5.288;2023-10-13T08:34:46;13.35;;;8.52;;
32200;SDS011;18701;45.588;5.288;2023-10-13T08:37:13;12.18;;;9.23;;
32200;SDS011;18701;45.588;5.288;2023-10-13T08:39:56;15.10;;;8.75;;
32200;SDS011;18701;45.588;5.288;2023-10-13T08:45:11;14.07;;;7.68;;
32200;SDS011;18701;45.588;5.288;2023-10-13T08:47:53;14.90;;;8.68;;
32200;SDS011;18701;45.588;5.288;2023-10-13T08:50:33;14.40;;;8.63;;
32200;SDS011;18701;45.588;5.288;2023-10-13T08:53:21;14.95;;;9.50;;
32200;SDS011;18701;45.588;5.288;2023-10-13T08:56:09;12.63;;;8.20;;
32200;SDS011;18701;45.588;5.288;2023-10-13T08:58:38;10.55;;;7.68;;
32200;SDS011;18701;45.588;5.288;2023-10-13T09:01:26;10.35;;;8.02;;
32200;SDS011;18701;45.588;5.288;2023-10-13T09:06:44;16.90;;;8.55;;
32200;SDS011;18701;45.588;5.288;2023-10-13T09:09:30;18.45;;;8.50;;
32200;SDS011;18701;45.588;5.288;2023-10-13T09:12:22;15.15;;;8.50;;
32200;SDS011;18701;45.588;5.288;2023-10-13T09:15:07;12.57;;;7.80;;
32200;SDS011;18701;45.588;5.288;2023-10-13T09:17:40;12.27;;;7.78;;
32200;SDS011;18701;45.588;5.288;2023-10-13T09:20:13;14.88;;;7.95;;
32200;SDS011;18701;45.588;5.288;2023-10-13T09:22:51;14.65;;;7.20;;
32200;SDS011;18701;45.588;5.288;2023-10-13T09:25:27;10.63;;;6.05;;
32200;SDS011;18701;45.588;5.288;2023-10-13T09:28:03;16.77;;;6.35;;
32200;SDS011;18701;45.588;5.288;2023-10-13T09:30:48;8.20;;;6.20;;
32200;SDS011;18701;45.588;5.288;2023-10-13T09:33:20;9.93;;;6.95;;
32200;SDS011;18701;45.588;5.288;2023-10-13T09:35:57;9.15;;;5.85;;
32200;SDS011;18701;45.588;5.288;2023-10-13T09:38:29;9.20;;;5.18;;
32200;SDS011;18701;45.588;5.288;2023-10-13T09:41:26;8.68;;;4.43;;
32200;SDS011;18701;45.588;5.288;2023-10-13T09:43:57;8.82;;;4.90;;
32200;SDS011;18701;45.588;5.288;2023-10-13T09:46:23;17.65;;;5.38;;
32200;SDS011;18701;45.588;5.288;2023-10-13T09:48:59;10.50;;;5.20;;
32200;SDS011;18701;45.588;5.288;2023-10-13T09:51:39;10.48;;;4.50;;
32200;SDS011;18701;45.588;5.288;2023-10-13T09:54:27;7.45;;;4.65;;
32200;SDS011;18701;45.588;5.288;2023-10-13T09:57:00;12.48;;;3.85;;
32200;SDS011;18701;45.588;5.288;2023-10-13T09:59:48;15.70;;;4.70;;
32200;SDS011;18701;45.588;5.288;2023-10-13T10:02:18;13.63;;;4.60;;
32200;SDS011;18701;45.588;5.288;2023-10-13T10:04:53;10.48;;;3.85;;
32200;SDS011;18701;45.588;5.288;2023-10-13T10:07:27;8.05;;;3.90;;
32200;SDS011;18701;45.588;5.288;2023-10-13T10:10:00;9.43;;;4.55;;
32200;SDS011;18701;45.588;5.288;2023-10-13T10:12:31;10.90;;;3.50;;
32200;SDS011;18701;45.588;5.288;2023-10-13T10:17:53;7.45;;;4.03;;
32200;SDS011;18701;45.588;5.288;2023-10-13T10:20:27;9.32;;;4.40;;
32200;SDS011;18701;45.588;5.288;2023-10-13T10:23:04;6.88;;;4.43;;
32200;SDS011;18701;45.588;5.288;2023-10-13T10:25:35;9.50;;;3.90;;
32200;SDS011;18701;45.588;5.288;2023-10-13T10:28:03;19.88;;;4.90;;
32200;SDS011;18701;45.588;5.288;2023-10-13T10:30:31;10.90;;;4.35;;
32200;SDS011;18701;45.588;5.288;2023-10-13T10:33:04;8.65;;;3.95;;
32200;SDS011;18701;45.588;5.288;2023-10-13T10:35:59;10.77;;;3.90;;
32200;SDS011;18701;45.588;5.288;2023-10-13T10:38:25;7.35;;;3.97;;
32200;SDS011;18701;45.588;5.288;2023-10-13T10:40:54;8.00;;;4.75;;
32200;SDS011;18701;45.588;5.288;2023-10-13T10:43:30;12.23;;;3.75;;
32200;SDS011;18701;45.588;5.288;2023-10-13T10:46:29;4.70;;;3.80;;
32200;SDS011;18701;45.588;5.288;2023-10-13T10:49:03;7.80;;;4.32;;
32200;SDS011;18701;45.588;5.288;2023-10-13T10:51:33;10.45;;;4.32;;
32200;SDS011;18701;45.588;5.288;2023-10-13T10:54:17;24.10;;;4.57;;
32200;SDS011;18701;45.588;5.288;2023-10-13T10:56:43;7.20;;;4.32;;
32200;SDS011;18701;45.588;5.288;2023-10-13T10:59:09;9.93;;;3.83;;
32200;SDS011;18701;45.588;5.288;2023-10-13T11:01:45;8.13;;;4.00;;
32200;SDS011;18701;45.588;5.288;2023-10-13T11:04:17;14.23;;;4.20;;
32200;SDS011;18701;45.588;5.288;2023-10-13T11:09:12;6.90;;;3.83;;
32200;SDS011;18701;45.588;5.288;2023-10-13T11:11:55;5.63;;;3.50;;
32200;SDS011;18701;45.588;5.288;2023-10-13T11:16:49;8.20;;;3.55;;
32200;SDS011;18701;45.588;5.288;2023-10-13T11:19:16;5.10;;;3.63;;
32200;SDS011;18701;45.588;5.288;2023-10-13T11:21:45;8.20;;;4.13;;
32200;SDS011;18701;45.588;5.288;2023-10-13T11:24:12;10.70;;;4.32;;
32200;SDS011;18701;45.588;5.288;2023-10-13T11:26:38;11.85;;;4.07;;
32200;SDS011;18701;45.588;5.288;2023-10-13T11:29:14;12.27;;;3.70;;
32200;SDS011;18701;45.588;5.288;2023-10-13T11:31:43;7.68;;;3.88;;
32200;SDS011;18701;45.588;5.288;2023-10-13T11:34:22;9.30;;;3.58;;
32200;SDS011;18701;45.588;5.288;2023-10-13T11:36:48;8.10;;;3.70;;
32200;SDS011;18701;45.588;5.288;2023-10-13T11:39:13;10.43;;;3.88;;
32200;SDS011;18701;45.588;5.288;2023-10-13T11:41:47;7.10;;;3.63;;
32200;SDS011;18701;45.588;5.288;2023-10-13T11:44:19;14.10;;;4.00;;
32200;SDS011;18701;45.588;5.288;2023-10-13T11:46:45;8.02;;;4.00;;
32200;SDS011;18701;45.588;5.288;2023-10-13T11:49:13;12.30;;;4.40;;
32200;SDS011;18701;45.588;5.288;2023-10-13T11:51:46;9.10;;;3.83;;
32200;SDS011;18701;45.588;5.288;2023-10-13T11:56:40;9.98;;;4.15;;
32200;SDS011;18701;45.588;5.288;2023-10-13T11:59:09;6.30;;;3.60;;
32200;SDS011;18701;45.588;5.288;2023-10-13T12:01:45;7.43;;;4.03;;
32200;SDS011;18701;45.588;5.288;2023-10-13T12:04:33;11.23;;;3.95;;
32200;SDS011;18701;45.588;5.288;2023-10-13T12:07:19;10.43;;;3.53;;
32200;SDS011;18701;45.588;5.288;2023-10-13T12:10:11;6.63;;;3.38;;
32200;SDS011;18701;45.588;5.288;2023-10-13T12:12:59;11.13;;;3.17;;
32200;SDS011;18701;45.588;5.288;2023-10-13T12:15:30;6.32;;;3.53;;
32200;SDS011;18701;45.588;5.288;2023-10-13T12:18:18;10.43;;;3.50;;
32200;SDS011;18701;45.588;5.288;2023-10-13T12:20:44;13.43;;;3.63;;
32200;SDS011;18701;45.588;5.288;2023-10-13T12:23:14;8.25;;;3.28;;
32200;SDS011;18701;45.588;5.288;2023-10-13T12:25:44;8.55;;;3.17;;
32200;SDS011;18701;45.588;5.288;2023-10-13T12:28:20;6.70;;;3.65;;
32200;SDS011;18701;45.588;5.288;2023-10-13T12:30:48;16.30;;;3.50;;
32200;SDS011;18701;45.588;5.288;2023-10-13T12:33:15;16.30;;;3.20;;
32200;SDS011;18701;45.588;5.288;2023-10-13T12:38:52;9.05;;;3.00;;
32200;SDS011;18701;45.588;5.288;2023-10-13T12:41:38;6.60;;;2.75;;
32200;SDS011;18701;45.588;5.288;2023-10-13T12:44:22;10.85;;;3.72;;
32200;SDS011;18701;45.588;5.288;2023-10-13T12:47:08;8.73;;;3.30;;
32200;SDS011;18701;45.588;5.288;2023-10-13T12:49:52;8.95;;;3.10;;
32200;SDS011;18701;45.588;5.288;2023-10-13T12:52:23;9.63;;;3.60;;
32200;SDS011;18701;45.588;5.288;2023-10-13T12:54:52;9.07;;;3.28;;
32200;SDS011;18701;45.588;5.288;2023-10-13T12:57:30;8.68;;;3.10;;
32200;SDS011;18701;45.588;5.288;2023-10-13T12:59:57;18.17;;;4.57;;
32200;SDS011;18701;45.588;5.288;2023-10-13T13:02:23;11.85;;;4.10;;
32200;SDS011;18701;45.588;5.288;2023-10-13T13:04:53;6.15;;;4.13;;
32200;SDS011;18701;45.588;5.288;2023-10-13T13:07:22;8.27;;;4.35;;
32200;SDS011;18701;45.588;5.288;2023-10-13T13:09:54;5.38;;;3.58;;
32200;SDS011;18701;45.588;5.288;2023-10-13T13:12:23;7.80;;;2.92;;
32200;SDS011;18701;45.588;5.288;2023-10-13T13:14:49;5.93;;;2.83;;
32200;SDS011;18701;45.588;5.288;2023-10-13T13:17:20;4.00;;;2.72;;
32200;SDS011;18701;45.588;5.288;2023-10-13T13:19:48;7.43;;;3.20;;
32200;SDS011;18701;45.588;5.288;2023-10-13T13:22:14;9.98;;;3.58;;
32200;SDS011;18701;45.588;5.288;2023-10-13T13:24:41;6.70;;;4.10;;
32200;SDS011;18701;45.588;5.288;2023-10-13T13:27:12;6.05;;;2.97;;
32200;SDS011;18701;45.588;5.288;2023-10-13T13:29:41;10.20;;;2.92;;
32200;SDS011;18701;45.588;5.288;2023-10-13T13:32:07;3.40;;;3.00;;
32200;SDS011;18701;45.588;5.288;2023-10-13T13:34:42;11.60;;;5.65;;
32200;SDS011;18701;45.588;5.288;2023-10-13T13:37:09;5.15;;;3.28;;
32200;SDS011;18701;45.588;5.288;2023-10-13T13:39:37;11.52;;;4.32;;
32200;SDS011;18701;45.588;5.288;2023-10-13T13:42:08;9.98;;;3.58;;
32200;SDS011;18701;45.588;5.288;2023-10-13T13:44:34;11.50;;;3.65;;
32200;SDS011;18701;45.588;5.288;2023-10-13T13:47:03;10.00;;;3.97;;
32200;SDS011;18701;45.588;5.288;2023-10-13T13:49:37;7.72;;;4.05;;
32200;SDS011;18701;45.588;5.288;2023-10-13T13:52:11;6.05;;;3.40;;
32200;SDS011;18701;45.588;5.288;2023-10-13T13:54:43;7.80;;;2.90;;
32200;SDS011;18701;45.588;5.288;2023-10-13T13:57:09;8.50;;;6.80;;
32200;SDS011;18701;45.588;5.288;2023-10-13T13:59:36;8.38;;;4.10;;
32200;SDS011;18701;45.588;5.288;2023-10-13T14:02:02;4.47;;;2.78;;
32200;SDS011;18701;45.588;5.288;2023-10-13T14:04:44;10.48;;;2.83;;
32200;SDS011;18701;45.588;5.288;2023-10-13T14:07:12;9.70;;;3.13;;
32200;SDS011;18701;45.588;5.288;2023-10-13T14:09:40;6.82;;;3.05;;
32200;SDS011;18701;45.588;5.288;2023-10-13T14:12:08;7.55;;;2.65;;
32200;SDS011;18701;45.588;5.288;2023-10-13T14:14:53;5.82;;;3.08;;
32200;SDS011;18701;45.588;5.288;2023-10-13T14:17:22;9.68;;;2.67;;
32200;SDS011;18701;45.588;5.288;2023-10-13T14:19:55;5.22;;;2.90;;
32200;SDS011;18701;45.588;5.288;2023-10-13T14:22:22;7.40;;;3.30;;
32200;SDS011;18701;45.588;5.288;2023-10-13T14:24:50;12.05;;;3.40;;
32200;SDS011;18701;45.588;5.288;2023-10-13T14:27:19;7.68;;;3.28;;
32200;SDS011;18701;45.588;5.288;2023-10-13T14:29:48;11.27;;;3.55;;
32200;SDS011;18701;45.588;5.288;2023-10-13T14:32:18;8.88;;;2.88;;
32200;SDS011;18701;45.588;5.288;2023-10-13T14:34:45;13.20;;;2.78;;
32200;SDS011;18701;45.588;5.288;2023-10-13T14:37:19;5.18;;;2.70;;
32200;SDS011;18701;45.588;5.288;2023-10-13T14:39:54;4.15;;;2.53;;
32200;SDS011;18701;45.588;5.288;2023-10-13T14:42:23;9.57;;;2.93;;
32200;SDS011;18701;45.588;5.288;2023-10-13T14:44:50;3.25;;;2.63;;
32200;SDS011;18701;45.588;5.288;2023-10-13T14:47:21;8.32;;;2.92;;
32200;SDS011;18701;45.588;5.288;2023-10-13T14:49:50;6.07;;;2.75;;
32200;SDS011;18701;45.588;5.288;2023-10-13T14:52:28;11.38;;;2.85;;
32200;SDS011;18701;45.588;5.288;2023-10-13T14:54:57;9.50;;;2.63;;
32200;SDS011;18701;45.588;5.288;2023-10-13T14:57:23;7.00;;;2.72;;
32200;SDS011;18701;45.588;5.288;2023-10-13T14:59:55;6.25;;;2.65;;
32200;SDS011;18701;45.588;5.288;2023-10-13T15:02:22;5.95;;;2.20;;
32200;SDS011;18701;45.588;5.288;2023-10-13T15:04:48;9.32;;;3.90;;
32200;SDS011;18701;45.588;5.288;2023-10-13T15:07:14;8.05;;;3.70;;
32200;SDS011;18701;45.588;5.288;2023-10-13T15:09:42;9.57;;;3.60;;
32200;SDS011;18701;45.588;5.288;2023-10-13T15:12:08;5.65;;;3.17;;
32200;SDS011;18701;45.588;5.288;2023-10-13T15:14:36;10.00;;;3.25;;
32200;SDS011;18701;45.588;5.288;2023-10-13T15:17:04;6.90;;;3.58;;
32200;SDS011;18701;45.588;5.288;2023-10-13T15:19:31;5.85;;;3.90;;
32200;SDS011;18701;45.588;5.288;2023-10-13T15:22:01;13.07;;;4.03;;
32200;SDS011;18701;45.588;5.288;2023-10-13T15:24:31;6.60;;;3.00;;
32200;SDS011;18701;45.588;5.288;2023-10-13T15:27:01;8.27;;;2.20;;
32200;SDS011;18701;45.588;5.288;2023-10-13T15:29:27;8.52;;;2.38;;
32200;SDS011;18701;45.588;5.288;2023-10-13T15:32:00;10.60;;;2.60;;
32200;SDS011;18701;45.588;5.288;2023-10-13T15:34:29;8.05;;;2.78;;
32200;SDS011;18701;45.588;5.288;2023-10-13T15:36:55;8.07;;;2.45;;
32200;SDS011;18701;45.588;5.288;2023-10-13T15:39:22;5.18;;;2.17;;
32200;SDS011;18701;45.588;5.288;2023-10-13T15:41:52;8.48;;;2.60;;
32200;SDS011;18701;45.588;5.288;2023-10-13T15:44:18;7.70;;;2.58;;
32200;SDS011;18701;45.588;5.288;2023-10-13T15:46:51;6.80;;;2.53;;